Time;durP1;ratioP1;P1;durP2;ratioP2;P2;SDS_P1;SDS_P2;PMS_P1;PMS_P2;Temp;Humidity;BMP_temperature;BMP_pressure;BME280_temperature;BME280_humidity;BME280_pressure;Samples;Min_cycle;Max_cycle;Signal;HPM_P1;HPM_P2
2022/06/10 00:02:16;;;;;;;4.43;3.58;;;;;;;;;;4219533;34;20153;-70
2022/06/10 00:33:20;;;;;;;;;;;;;;;;;;4705559;28;20095;-70
2022/06/10 00:35:46;;;;;;;6.20;3.50;;;;;;;;;;4213790;34;20038;-69
2022/06/10 00:38:12;;;;;;;4.85;3.25;;;;;;;;;;4230719;33;20145;-70
2022/06/10 00:40:47;;;;;;;7.85;3.70;;;;;;;;;;4219496;33;20117;-70
2022/06/10 00:43:15;;;;;;;4.78;3.20;;;;;;;;;;4222376;33;20533;-63
2022/06/10 00:46:18;;;;;;;5.22;3.60;;;;;;;;;;4232773;33;20128;-63
2022/06/10 00:48:54;;;;;;;5.90;3.97;;;;;;;;;;4232915;33;20612;-67
2022/06/10 00:51:32;;;;;;;7.90;3.70;;;;;;;;;;4231582;33;20116;-67
2022/06/10 00:54:07;;;;;;;5.55;3.58;;;;;;;;;;4206014;34;20527;-63
2022/06/10 00:56:34;;;;;;;6.07;3.97;;;;;;;;;;4206107;34;20113;-63
2022/06/10 00:59:08;;;;;;;5.40;3.25;;;;;;;;;;4206224;34;20233;-64
2022/06/10 01:01:35;;;;;;;7.68;3.92;;;;;;;;;;4205454;34;20089;-63
2022/06/10 01:04:01;;;;;;;7.03;3.25;;;;;;;;;;4206209;34;20110;-63
2022/06/10 01:06:28;;;;;;;7.62;3.50;;;;;;;;;;4205611;34;20098;-63
2022/06/10 01:08:54;;;;;;;5.20;3.50;;;;;;;;;;4222659;33;20097;-63
2022/06/10 01:11:38;;;;;;;4.90;3.83;;;;;;;;;;4219427;33;20108;-63
2022/06/10 01:14:28;;;;;;;8.32;4.03;;;;;;;;;;4232900;33;20094;-63
2022/06/10 01:17:43;;;;;;;5.47;3.60;;;;;;;;;;4219728;33;20472;-63
2022/06/10 01:20:23;;;;;;;5.30;3.85;;;;;;;;;;4202187;34;20124;-62
2022/06/10 01:23:28;;;;;;;8.80;4.10;;;;;;;;;;4190992;34;20466;-63
2022/06/10 01:26:11;;;;;;;4.12;3.55;;;;;;;;;;4208457;33;20117;-64
2022/06/10 01:29:13;;;;;;;5.62;3.80;;;;;;;;;;4219419;33;20615;-64
2022/06/10 01:31:52;;;;;;;6.55;3.92;;;;;;;;;;4220237;33;20121;-64
2022/06/10 01:34:26;;;;;;;5.65;3.85;;;;;;;;;;4219220;33;20132;-63
2022/06/10 01:37:21;;;;;;;4.25;3.62;;;;;;;;;;4223839;33;20113;-62
2022/06/10 01:39:56;;;;;;;5.07;3.42;;;;;;;;;;4197982;34;20121;-62
2022/06/10 01:42:27;;;;;;;;;;;;;;;;;;4205940;34;20228;-62
2022/06/10 01:45:14;;;;;;;4.28;3.58;;;;;;;;;;4205687;34;20024;-62
2022/06/10 01:47:52;;;;;;;4.28;3.70;;;;;;;;;;4218368;34;20117;-62
2022/06/10 01:50:25;;;;;;;6.37;3.87;;;;;;;;;;4218270;34;20097;-63
2022/06/10 01:52:59;;;;;;;5.35;3.80;;;;;;;;;;4205542;34;20521;-62
2022/06/10 01:55:45;;;;;;;9.52;5.12;;;;;;;;;;4205339;34;20129;-63
2022/06/10 01:58:24;;;;;;;10.25;4.82;;;;;;;;;;4218356;34;20101;-62
2022/06/10 02:00:55;;;;;;;7.43;4.07;;;;;;;;;;4205545;34;20113;-61
2022/06/10 02:03:35;;;;;;;6.97;4.12;;;;;;;;;;4205449;34;20441;-63
2022/06/10 02:06:05;;;;;;;7.32;4.30;;;;;;;;;;4217932;34;20116;-62
2022/06/10 02:08:39;;;;;;;12.43;6.07;;;;;;;;;;4205166;34;20155;-62
2022/06/10 02:11:12;;;;;;;5.45;4.47;;;;;;;;;;4214224;33;20121;-62
2022/06/10 02:13:56;;;;;;;7.10;3.72;;;;;;;;;;4207509;33;20212;-63
2022/06/10 02:16:29;;;;;;;9.20;4.55;;;;;;;;;;4218921;33;20622;-63
2022/06/10 02:19:09;;;;;;;6.03;4.45;;;;;;;;;;4231209;33;20125;-62
2022/06/10 02:22:00;;;;;;;5.07;3.80;;;;;;;;;;4220977;33;20196;-63
2022/06/10 02:24:30;;;;;;;9.65;3.85;;;;;;;;;;4234044;33;20124;-63
2022/06/10 02:27:01;;;;;;;8.80;3.90;;;;;;;;;;4233989;33;20115;-63
2022/06/10 02:29:32;;;;;;;5.25;3.65;;;;;;;;;;4234303;33;20639;-63
2022/06/10 02:31:59;;;;;;;7.20;4.45;;;;;;;;;;4233875;33;20113;-62
2022/06/10 02:34:27;;;;;;;9.25;4.40;;;;;;;;;;4232446;33;20112;-63
2022/06/10 02:37:03;;;;;;;13.32;4.20;;;;;;;;;;4230515;33;20105;-64
2022/06/10 02:39:37;;;;;;;10.75;3.78;;;;;;;;;;4195412;34;20613;-65
2022/06/10 02:42:12;;;;;;;11.70;4.20;;;;;;;;;;4219918;34;20137;-63
2022/06/10 02:44:37;;;;;;;7.97;3.90;;;;;;;;;;4207069;34;20099;-63
2022/06/10 02:47:18;;;;;;;11.43;5.50;;;;;;;;;;4219958;34;20101;-63
2022/06/10 02:49:45;;;;;;;12.45;3.95;;;;;;;;;;4207265;34;20129;-62
2022/06/10 02:52:13;;;;;;;7.95;4.05;;;;;;;;;;4219731;34;20524;-63
2022/06/10 02:54:40;;;;;;;7.15;3.75;;;;;;;;;;4219818;34;20092;-63
2022/06/10 02:57:21;;;;;;;14.52;4.25;;;;;;;;;;4206830;34;20121;-63
2022/06/10 03:02:34;;;;;;;7.00;4.05;;;;;;;;;;4219652;34;20116;-63
2022/06/10 03:05:15;;;;;;;11.73;4.62;;;;;;;;;;4219801;34;20569;-63
2022/06/10 03:08:17;;;;;;;5.82;3.70;;;;;;;;;;4207027;34;20101;-63
2022/06/10 03:10:49;;;;;;;5.65;3.95;;;;;;;;;;4217643;34;20143;-63
2022/06/10 03:13:42;;;;;;;12.45;4.80;;;;;;;;;;4219956;34;20130;-63
2022/06/10 03:16:28;;;;;;;8.43;4.30;;;;;;;;;;4206982;34;20105;-62
2022/06/10 03:19:06;;;;;;;7.65;4.68;;;;;;;;;;4219640;34;20121;-63
2022/06/10 03:21:34;;;;;;;7.65;3.97;;;;;;;;;;4219754;34;20125;-63
2022/06/10 03:24:23;;;;;;;11.23;4.25;;;;;;;;;;4219578;34;20103;-63
2022/06/10 03:27:17;;;;;;;11.52;5.12;;;;;;;;;;4219465;34;20097;-63
2022/06/10 03:29:47;;;;;;;9.02;4.00;;;;;;;;;;4219162;34;20105;-63
2022/06/10 03:32:28;;;;;;;6.03;4.93;;;;;;;;;;4205952;34;20169;-63
2022/06/10 03:34:59;;;;;;;6.78;4.12;;;;;;;;;;4207106;34;20116;-63
2022/06/10 03:37:26;;;;;;;8.10;4.43;;;;;;;;;;4206569;34;20110;-63
2022/06/10 03:39:54;;;;;;;5.97;3.92;;;;;;;;;;4206581;34;20125;-63
2022/06/10 03:42:21;;;;;;;6.10;4.18;;;;;;;;;;4219310;34;20757;-63
2022/06/10 03:44:50;;;;;;;10.70;3.35;;;;;;;;;;4219365;34;20120;-62
2022/06/10 03:47:21;;;;;;;9.45;4.05;;;;;;;;;;4206245;34;20181;-63
2022/06/10 03:49:57;;;;;;;5.40;3.67;;;;;;;;;;4206782;34;20109;-63
2022/06/10 03:52:28;;;;;;;6.78;3.80;;;;;;;;;;4219279;34;20157;-64
2022/06/10 03:54:54;;;;;;;6.25;3.75;;;;;;;;;;4206321;34;20608;-63
2022/06/10 03:57:20;;;;;;;6.03;3.80;;;;;;;;;;4219167;34;20532;-64
2022/06/10 03:59:47;;;;;;;5.57;3.25;;;;;;;;;;4219343;34;20148;-64
2022/06/10 04:02:19;;;;;;;7.40;4.07;;;;;;;;;;4219355;34;20128;-65
2022/06/10 04:04:45;;;;;;;9.00;3.75;;;;;;;;;;4219240;34;20189;-65
2022/06/10 04:07:13;;;;;;;6.03;4.05;;;;;;;;;;4218929;34;20596;-64
2022/06/10 04:09:39;;;;;;;4.65;3.85;;;;;;;;;;4219052;34;20105;-64
2022/06/10 04:12:06;;;;;;;11.32;4.03;;;;;;;;;;4219215;34;20427;-65
2022/06/10 04:14:32;;;;;;;7.97;3.67;;;;;;;;;;4219379;34;20100;-63
2022/06/10 04:17:00;;;;;;;5.85;3.70;;;;;;;;;;4218929;34;20101;-62
2022/06/10 04:19:26;;;;;;;8.20;3.83;;;;;;;;;;4219141;34;20093;-64
2022/06/10 04:21:52;;;;;;;6.53;4.07;;;;;;;;;;4219061;34;20097;-63
2022/06/10 04:24:18;;;;;;;4.12;3.20;;;;;;;;;;4219346;34;20086;-64
2022/06/10 04:26:44;;;;;;;5.57;4.25;;;;;;;;;;4218870;34;20894;-62
2022/06/10 04:29:13;;;;;;;20.70;4.35;;;;;;;;;;4219018;34;20128;-64
2022/06/10 04:31:39;;;;;;;16.95;4.43;;;;;;;;;;4218863;34;20117;-64
2022/06/10 04:34:05;;;;;;;6.93;4.07;;;;;;;;;;4219241;34;20110;-69
2022/06/10 04:36:31;;;;;;;10.20;4.18;;;;;;;;;;4219021;34;20088;-69
2022/06/10 04:38:58;;;;;;;8.40;4.30;;;;;;;;;;4219007;34;20109;-67
2022/06/10 04:41:24;;;;;;;15.93;4.30;;;;;;;;;;4218842;34;20132;-70
2022/06/10 04:43:50;;;;;;;5.50;4.22;;;;;;;;;;4218687;34;20173;-69
2022/06/10 04:46:24;;;;;;;6.47;4.35;;;;;;;;;;4219006;34;20097;-70
2022/06/10 04:48:50;;;;;;;7.73;4.47;;;;;;;;;;4219054;34;20228;-69
2022/06/10 04:51:16;;;;;;;9.40;4.37;;;;;;;;;;4218845;34;20109;-70
2022/06/10 04:53:42;;;;;;;6.90;4.85;;;;;;;;;;4218750;34;20217;-70
2022/06/10 04:56:08;;;;;;;10.90;5.00;;;;;;;;;;4218766;34;20526;-70
2022/06/10 04:58:34;;;;;;;11.57;5.18;;;;;;;;;;4218652;34;20125;-71
2022/06/10 05:01:00;;;;;;;16.67;5.05;;;;;;;;;;4218693;34;20188;-70
2022/06/10 05:03:26;;;;;;;10.23;4.68;;;;;;;;;;4218662;34;20204;-69
2022/06/10 05:05:52;;;;;;;5.90;4.72;;;;;;;;;;4218523;34;20220;-68
2022/06/10 05:08:19;;;;;;;9.60;4.55;;;;;;;;;;4218649;34;20496;-69
2022/06/10 05:10:47;;;;;;;10.65;4.53;;;;;;;;;;4218678;34;20196;-69
2022/06/10 05:13:16;;;;;;;6.68;4.85;;;;;;;;;;4218684;34;20461;-66
2022/06/10 05:15:43;;;;;;;9.23;4.80;;;;;;;;;;4218662;34;20526;-70
2022/06/10 05:18:10;;;;;;;16.95;4.80;;;;;;;;;;4218489;34;20109;-69
2022/06/10 05:20:38;;;;;;;6.12;4.37;;;;;;;;;;4205995;34;20422;-71
2022/06/10 05:23:05;;;;;;;7.03;5.00;;;;;;;;;;4218455;34;20522;-71
2022/06/10 05:25:32;;;;;;;11.18;4.70;;;;;;;;;;4205828;34;20129;-68
2022/06/10 05:27:58;;;;;;;6.40;4.20;;;;;;;;;;4218740;34;20117;-69
2022/06/10 05:30:26;;;;;;;6.53;4.32;;;;;;;;;;4218468;34;20125;-68
2022/06/10 05:32:52;;;;;;;9.07;4.78;;;;;;;;;;4218264;34;20120;-67
2022/06/10 05:35:19;;;;;;;6.40;4.18;;;;;;;;;;4218485;34;20121;-68
2022/06/10 05:37:47;;;;;;;6.00;4.55;;;;;;;;;;4218305;34;20093;-68
2022/06/10 05:40:13;;;;;;;11.88;4.62;;;;;;;;;;4205729;34;20139;-69
2022/06/10 05:42:40;;;;;;;5.82;4.55;;;;;;;;;;4218482;34;20100;-68
2022/06/10 05:45:07;;;;;;;4.18;3.72;;;;;;;;;;4218316;34;20192;-68
2022/06/10 05:47:34;;;;;;;9.30;4.40;;;;;;;;;;4218100;34;20101;-67
2022/06/10 05:50:04;;;;;;;6.15;4.50;;;;;;;;;;4218306;34;20221;-68
2022/06/10 05:52:31;;;;;;;6.07;4.32;;;;;;;;;;4217981;34;20532;-68
2022/06/10 05:55:00;;;;;;;10.25;4.50;;;;;;;;;;4217440;34;20113;-68
2022/06/10 05:57:27;;;;;;;5.28;4.75;;;;;;;;;;4218038;34;20124;-69
2022/06/10 05:59:53;;;;;;;7.37;3.95;;;;;;;;;;4218262;34;20121;-68
2022/06/10 06:02:21;;;;;;;7.97;4.37;;;;;;;;;;4218309;34;20124;-69
2022/06/10 06:04:48;;;;;;;16.95;4.30;;;;;;;;;;4218109;34;20178;-68
2022/06/10 06:07:20;;;;;;;7.43;3.40;;;;;;;;;;4217969;34;20208;-70
2022/06/10 06:09:46;;;;;;;7.82;4.72;;;;;;;;;;4218175;34;20565;-69
2022/06/10 06:12:13;;;;;;;2.58;2.30;;;;;;;;;;4217922;34;20110;-69
2022/06/10 06:14:39;;;;;;;5.55;3.47;;;;;;;;;;4218034;34;20113;-70
2022/06/10 06:17:06;;;;;;;5.32;3.62;;;;;;;;;;4218026;34;20129;-68
2022/06/10 06:19:33;;;;;;;4.72;4.25;;;;;;;;;;4218290;34;20124;-81
2022/06/10 06:21:59;;;;;;;6.28;4.78;;;;;;;;;;4205162;34;20620;-74
2022/06/10 06:24:26;;;;;;;6.45;4.18;;;;;;;;;;4205016;34;20126;-72
2022/06/10 06:26:52;;;;;;;4.57;3.80;;;;;;;;;;4217744;34;20512;-69
2022/06/10 06:29:19;;;;;;;4.12;3.70;;;;;;;;;;4217930;34;20122;-72
2022/06/10 06:31:46;;;;;;;4.53;3.90;;;;;;;;;;4217812;34;20280;-73
2022/06/10 06:34:12;;;;;;;5.70;4.18;;;;;;;;;;4217795;34;20474;-73
2022/06/10 06:36:44;;;;;;;7.75;4.62;;;;;;;;;;4217651;34;20121;-74
2022/06/10 06:39:12;;;;;;;6.10;3.75;;;;;;;;;;4217906;34;20178;-65
2022/06/10 06:41:38;;;;;;;12.02;3.80;;;;;;;;;;4217685;34;20835;-64
2022/06/10 06:44:05;;;;;;;5.90;3.95;;;;;;;;;;4217722;34;20820;-68
2022/06/10 06:46:33;;;;;;;9.68;3.78;;;;;;;;;;4217742;34;20534;-70
2022/06/10 06:49:00;;;;;;;6.20;4.00;;;;;;;;;;4217486;33;20225;-69
2022/06/10 06:51:27;;;;;;;11.57;3.80;;;;;;;;;;4225406;33;20144;-66
2022/06/10 06:53:53;;;;;;;4.28;3.60;;;;;;;;;;4221682;33;20824;-67
2022/06/10 06:56:19;;;;;;;3.35;3.05;;;;;;;;;;4215393;33;20197;-67
2022/06/10 06:58:45;;;;;;;7.05;3.33;;;;;;;;;;4227482;33;20088;-71
2022/06/10 07:01:11;;;;;;;4.12;2.97;;;;;;;;;;4220028;33;20089;-68
2022/06/10 07:03:37;;;;;;;3.58;3.08;;;;;;;;;;4218854;33;20109;-66
2022/06/10 07:06:04;;;;;;;3.08;2.28;;;;;;;;;;4232752;33;20677;-67
2022/06/10 07:08:33;;;;;;;3.35;2.60;;;;;;;;;;4233738;33;20140;-67
2022/06/10 07:11:00;;;;;;;4.65;3.40;;;;;;;;;;4226456;33;20109;-66
2022/06/10 07:13:27;;;;;;;3.90;2.95;;;;;;;;;;4232529;33;20124;-67
2022/06/10 07:15:53;;;;;;;6.22;3.35;;;;;;;;;;4233666;33;20537;-68
2022/06/10 07:18:20;;;;;;;6.22;3.65;;;;;;;;;;4229275;33;20102;-67
2022/06/10 07:20:46;;;;;;;7.05;3.10;;;;;;;;;;4206933;34;20102;-69
2022/06/10 07:23:12;;;;;;;5.55;3.10;;;;;;;;;;4206575;34;20112;-70
2022/06/10 07:25:38;;;;;;;4.68;2.72;;;;;;;;;;4219570;34;20117;-68
2022/06/10 07:28:04;;;;;;;3.15;2.35;;;;;;;;;;4219643;34;20145;-68
2022/06/10 07:30:32;;;;;;;2.97;2.67;;;;;;;;;;4219536;34;20089;-65
2022/06/10 07:32:58;;;;;;;3.50;2.72;;;;;;;;;;4219245;34;20574;-68
2022/06/10 07:35:25;;;;;;;6.78;2.85;;;;;;;;;;4219481;34;20109;-67
2022/06/10 07:37:52;;;;;;;3.08;2.75;;;;;;;;;;4219395;34;20485;-65
2022/06/10 07:43:16;;;;;;;3.90;2.53;;;;;;;;;;4220246;33;20097;-66
2022/06/10 07:45:42;;;;;;;2.70;2.50;;;;;;;;;;4233442;33;20102;-65
2022/06/10 07:48:10;;;;;;;2.90;2.20;;;;;;;;;;4233436;33;20525;-66
2022/06/10 07:50:37;;;;;;;5.45;2.90;;;;;;;;;;4233440;33;20105;-68
2022/06/10 07:53:04;;;;;;;5.85;2.72;;;;;;;;;;4220256;33;20113;-65
2022/06/10 07:55:30;;;;;;;2.78;1.90;;;;;;;;;;4233400;33;20105;-63
2022/06/10 07:57:56;;;;;;;6.35;2.60;;;;;;;;;;4233566;33;20109;-64
2022/06/10 08:00:22;;;;;;;4.00;2.70;;;;;;;;;;4233540;33;20117;-69
2022/06/10 08:02:48;;;;;;;3.10;2.80;;;;;;;;;;4220419;33;20132;-72
2022/06/10 08:05:16;;;;;;;8.30;3.47;;;;;;;;;;4220475;33;20093;-66
2022/06/10 08:07:43;;;;;;;11.43;3.00;;;;;;;;;;4233124;33;20128;-66
2022/06/10 08:10:26;;;;;;;2.35;2.15;;;;;;;;;;4214425;34;20108;-65
2022/06/10 08:12:52;;;;;;;12.68;3.12;;;;;;;;;;4219417;34;20104;-66
2022/06/10 08:15:19;;;;;;;3.83;2.80;;;;;;;;;;4219377;34;20209;-68
2022/06/10 08:17:46;;;;;;;3.62;2.72;;;;;;;;;;4218498;34;20122;-66
2022/06/10 08:20:20;;;;;;;3.08;2.40;;;;;;;;;;4219111;34;20208;-64
2022/06/10 08:22:47;;;;;;;3.08;2.80;;;;;;;;;;4219215;34;20176;-64
2022/06/10 08:25:13;;;;;;;5.60;2.67;;;;;;;;;;4219072;34;20121;-64
2022/06/10 08:27:39;;;;;;;4.30;2.80;;;;;;;;;;4219181;34;20492;-65
2022/06/10 08:30:07;;;;;;;5.03;2.35;;;;;;;;;;4219040;34;20201;-66
2022/06/10 08:32:33;;;;;;;7.47;2.95;;;;;;;;;;4205996;34;20121;-65
2022/06/10 08:34:59;;;;;;;2.47;2.17;;;;;;;;;;4218891;34;20116;-66
2022/06/10 08:37:25;;;;;;;5.95;2.80;;;;;;;;;;4218883;34;20204;-66
2022/06/10 08:39:51;;;;;;;2.80;2.42;;;;;;;;;;4219144;34;20441;-64
2022/06/10 08:42:50;;;;;;;3.87;3.15;;;;;;;;;;4205871;34;20543;-65
2022/06/10 08:45:25;;;;;;;2.85;2.35;;;;;;;;;;4230054;33;20129;-65
2022/06/10 08:47:54;;;;;;;4.03;2.67;;;;;;;;;;4219943;33;20462;-65
2022/06/10 08:50:53;;;;;;;3.00;2.70;;;;;;;;;;4220055;33;20157;-65
2022/06/10 08:53:23;;;;;;;3.78;3.03;;;;;;;;;;4224870;33;20121;-67
2022/06/10 08:55:55;;;;;;;4.47;3.15;;;;;;;;;;4219965;33;20136;-66
2022/06/10 08:58:44;;;;;;;4.22;2.85;;;;;;;;;;4219456;33;20090;-64
2022/06/10 09:01:18;;;;;;;4.82;2.80;;;;;;;;;;4232526;33;20113;-66
2022/06/10 09:04:10;;;;;;;2.53;2.20;;;;;;;;;;4219837;33;20125;-66
2022/06/10 09:06:40;;;;;;;4.65;3.15;;;;;;;;;;4232941;33;20121;-65
2022/06/10 09:09:07;;;;;;;4.72;3.00;;;;;;;;;;4219705;33;20112;-67
2022/06/10 09:11:36;;;;;;;3.28;2.97;;;;;;;;;;4222435;33;20181;-66
2022/06/10 09:14:23;;;;;;;5.15;2.50;;;;;;;;;;4205638;34;20111;-66
2022/06/10 09:16:54;;;;;;;4.15;2.90;;;;;;;;;;4218406;34;20541;-67
2022/06/10 09:19:45;;;;;;;4.25;3.30;;;;;;;;;;4205671;34;20462;-67
2022/06/10 09:22:19;;;;;;;7.78;3.42;;;;;;;;;;4182702;34;20128;-66
2022/06/10 09:25:06;;;;;;;3.95;3.53;;;;;;;;;;4218434;34;20140;-66
2022/06/10 09:27:35;;;;;;;5.57;3.20;;;;;;;;;;4218406;34;20089;-64
2022/06/10 09:30:04;;;;;;;3.60;3.05;;;;;;;;;;4218461;34;20098;-65
2022/06/10 09:32:48;;;;;;;4.35;3.10;;;;;;;;;;4205627;34;20124;-63
2022/06/10 09:35:35;;;;;;;4.45;3.47;;;;;;;;;;4218537;34;20106;-64
2022/06/10 09:38:13;;;;;;;3.35;3.03;;;;;;;;;;4218499;34;20132;-64
2022/06/10 09:40:42;;;;;;;6.87;3.30;;;;;;;;;;4205729;34;20112;-64
2022/06/10 09:43:33;;;;;;;3.37;3.00;;;;;;;;;;4218542;34;20117;-64
2022/06/10 09:46:20;;;;;;;4.03;3.05;;;;;;;;;;4205890;34;20204;-69
2022/06/10 09:48:48;;;;;;;3.90;3.25;;;;;;;;;;4218622;34;20108;-68
2022/06/10 09:51:23;;;;;;;3.15;2.37;;;;;;;;;;4218345;34;20122;-66
2022/06/10 09:54:18;;;;;;;6.97;3.40;;;;;;;;;;4218433;34;20180;-66
2022/06/10 09:57:00;;;;;;;5.57;3.05;;;;;;;;;;4205490;34;20089;-65
2022/06/10 09:59:44;;;;;;;3.33;3.00;;;;;;;;;;4218155;34;20561;-66
2022/06/10 10:02:21;;;;;;;2.85;2.65;;;;;;;;;;4205293;34;20109;-66
2022/06/10 10:05:15;;;;;;;2.78;2.15;;;;;;;;;;4218010;34;20681;-66
2022/06/10 10:07:52;;;;;;;3.55;2.80;;;;;;;;;;4218324;34;20112;-67
2022/06/10 10:10:32;;;;;;;5.40;2.83;;;;;;;;;;4217833;34;20209;-67
2022/06/10 10:13:16;;;;;;;3.47;3.17;;;;;;;;;;4205255;34;20100;-67
2022/06/10 10:16:01;;;;;;;3.47;3.05;;;;;;;;;;4217818;34;20127;-67
2022/06/10 10:18:33;;;;;;;3.50;3.00;;;;;;;;;;4205071;34;20136;-68
2022/06/10 10:21:03;;;;;;;6.05;3.67;;;;;;;;;;4217894;34;20133;-67
2022/06/10 10:23:40;;;;;;;3.28;2.97;;;;;;;;;;4217643;34;20117;-67
2022/06/10 10:26:17;;;;;;;4.20;2.92;;;;;;;;;;4217773;34;20110;-66
2022/06/10 10:28:44;;;;;;;2.90;2.60;;;;;;;;;;4217640;34;20108;-66
2022/06/10 10:31:24;;;;;;;3.75;3.15;;;;;;;;;;4204585;34;20104;-67
2022/06/10 10:33:50;;;;;;;3.53;2.80;;;;;;;;;;4217671;34;20199;-67
2022/06/10 10:36:30;;;;;;;3.37;2.80;;;;;;;;;;4217646;34;20086;-68
2022/06/10 10:38:56;;;;;;;2.72;2.05;;;;;;;;;;4217593;34;20264;-67
2022/06/10 10:41:28;;;;;;;6.07;2.95;;;;;;;;;;4218828;34;20131;-67
2022/06/10 10:44:01;;;;;;;2.80;2.42;;;;;;;;;;4219767;34;20121;-67
2022/06/10 10:46:28;;;;;;;5.60;3.47;;;;;;;;;;4206668;34;20696;-66
2022/06/10 10:48:57;;;;;;;4.57;2.90;;;;;;;;;;4219680;34;20120;-67
2022/06/10 10:51:41;;;;;;;2.90;2.60;;;;;;;;;;4206801;34;20196;-67
2022/06/10 10:54:21;;;;;;;4.57;2.53;;;;;;;;;;4206867;34;20117;-67
2022/06/10 10:56:51;;;;;;;3.05;2.78;;;;;;;;;;4206511;34;20128;-67
2022/06/10 10:59:38;;;;;;;2.72;2.37;;;;;;;;;;4207044;34;20105;-64
2022/06/10 11:02:41;;;;;;;3.83;2.72;;;;;;;;;;4206554;34;20101;-66
2022/06/10 11:05:18;;;;;;;7.57;3.12;;;;;;;;;;4189722;34;20097;-65
2022/06/10 11:07:46;;;;;;;3.30;3.00;;;;;;;;;;4215763;34;20129;-65
2022/06/10 11:10:23;;;;;;;4.82;2.62;;;;;;;;;;4219507;34;20117;-66
2022/06/10 11:12:50;;;;;;;4.00;2.85;;;;;;;;;;4219622;34;20097;-67
2022/06/10 11:15:21;;;;;;;3.30;2.08;;;;;;;;;;4219527;34;20105;-68
2022/06/10 11:17:48;;;;;;;7.72;2.70;;;;;;;;;;4219537;34;20481;-66
2022/06/10 11:20:14;;;;;;;4.12;2.95;;;;;;;;;;4206612;34;20124;-66
2022/06/10 11:22:40;;;;;;;5.07;3.03;;;;;;;;;;4219594;34;20165;-67
2022/06/10 11:25:14;;;;;;;3.95;2.80;;;;;;;;;;4219517;34;20614;-66
2022/06/10 11:28:01;;;;;;;7.12;3.22;;;;;;;;;;4219412;34;20109;-65
2022/06/10 11:30:43;;;;;;;7.97;2.47;;;;;;;;;;4219121;34;20119;-65
2022/06/10 11:33:29;;;;;;;5.32;2.65;;;;;;;;;;4219211;34;20743;-65
2022/06/10 11:36:01;;;;;;;3.42;2.40;;;;;;;;;;4219372;34;20105;-65
2022/06/10 11:38:29;;;;;;;2.35;2.15;;;;;;;;;;4219548;34;20097;-65
2022/06/10 11:41:15;;;;;;;4.70;2.15;;;;;;;;;;4219237;34;20509;-66
2022/06/10 11:43:46;;;;;;;3.37;2.50;;;;;;;;;;4206280;34;20100;-64
2022/06/10 11:46:53;;;;;;;3.37;2.40;;;;;;;;;;4206200;34;20113;-67
2022/06/10 11:49:30;;;;;;;2.67;2.47;;;;;;;;;;4192496;34;20179;-65
2022/06/10 11:51:57;;;;;;;3.80;2.42;;;;;;;;;;4218299;34;20097;-65
2022/06/10 11:54:34;;;;;;;4.35;2.60;;;;;;;;;;4219041;34;20496;-66
2022/06/10 12:00:24;;;;;;;4.53;2.75;;;;;;;;;;4219050;34;20480;-66
2022/06/10 12:03:28;;;;;;;3.67;2.53;;;;;;;;;;4219223;34;20509;-67
2022/06/10 12:06:29;;;;;;;2.78;2.20;;;;;;;;;;4219011;34;20165;-67
2022/06/10 12:09:31;;;;;;;3.75;2.30;;;;;;;;;;4210221;34;20089;-67
2022/06/10 12:12:11;;;;;;;4.60;2.40;;;;;;;;;;4218919;34;20506;-65
2022/06/10 12:14:44;;;;;;;5.55;2.50;;;;;;;;;;4206144;34;20092;-66
2022/06/10 12:17:30;;;;;;;6.60;2.03;;;;;;;;;;4206075;34;20113;-67
2022/06/10 12:19:58;;;;;;;7.40;2.67;;;;;;;;;;4218760;34;20110;-66
2022/06/10 12:22:27;;;;;;;5.12;2.50;;;;;;;;;;4218904;34;20522;-66
2022/06/10 12:24:55;;;;;;;2.97;2.08;;;;;;;;;;4218640;34;20113;-66
2022/06/10 12:27:31;;;;;;;11.18;2.50;;;;;;;;;;4194198;34;20124;-67
2022/06/10 12:30:04;;;;;;;2.50;2.30;;;;;;;;;;4205970;34;20449;-65
2022/06/10 12:32:47;;;;;;;3.17;2.10;;;;;;;;;;4205851;34;20101;-67
2022/06/10 12:35:22;;;;;;;3.25;2.75;;;;;;;;;;4218734;34;20545;-67
2022/06/10 12:37:57;;;;;;;4.65;2.42;;;;;;;;;;4205765;34;20224;-70
2022/06/10 12:40:29;;;;;;;3.45;2.28;;;;;;;;;;4205670;34;20192;-66
2022/06/10 12:43:19;;;;;;;2.70;2.50;;;;;;;;;;4217177;34;20137;-67
2022/06/10 12:45:51;;;;;;;2.35;2.00;;;;;;;;;;4216334;34;20125;-68
2022/06/10 12:48:26;;;;;;;2.10;1.90;;;;;;;;;;4216259;34;20117;-68
2022/06/10 12:51:01;;;;;;;2.08;1.85;;;;;;;;;;4203693;34;20612;-67
2022/06/10 12:53:33;;;;;;;;;;;;;;;;;;4203834;34;20120;-67
2022/06/10 12:56:00;;;;;;;3.20;2.20;;;;;;;;;;4216457;34;20497;-67
2022/06/10 12:58:38;;;;;;;2.90;2.10;;;;;;;;;;4204933;34;20125;-67
2022/06/10 13:01:23;;;;;;;3.47;2.47;;;;;;;;;;4218504;34;20201;-67
2022/06/10 13:03:53;;;;;;;2.22;1.87;;;;;;;;;;4217202;34;20293;-66
2022/06/10 13:06:28;;;;;;;3.15;2.20;;;;;;;;;;4218505;34;20117;-67
2022/06/10 13:09:06;;;;;;;3.10;1.87;;;;;;;;;;4218653;34;20093;-66
2022/06/10 13:11:56;;;;;;;2.30;2.05;;;;;;;;;;4205608;34;20168;-67
2022/06/10 13:14:22;;;;;;;4.57;2.45;;;;;;;;;;4201976;34;20137;-67
2022/06/10 13:17:07;;;;;;;1.67;1.52;;;;;;;;;;4218298;34;20128;-67
2022/06/10 13:19:51;;;;;;;1.90;1.73;;;;;;;;;;4218508;34;20117;-66
2022/06/10 13:22:17;;;;;;;3.10;1.92;;;;;;;;;;4218333;34;20199;-67
2022/06/10 13:24:52;;;;;;;8.43;2.58;;;;;;;;;;4218197;34;20586;-67
2022/06/10 13:27:21;;;;;;;2.08;1.87;;;;;;;;;;4218448;34;20097;-69
2022/06/10 13:29:52;;;;;;;5.85;2.12;;;;;;;;;;4218409;34;20196;-67
2022/06/10 13:32:18;;;;;;;2.50;2.30;;;;;;;;;;4218291;34;20213;-67
2022/06/10 13:34:53;;;;;;;2.53;1.95;;;;;;;;;;4218256;34;20098;-66
2022/06/10 13:37:20;;;;;;;;;;;;;;;;;;4218605;34;20562;-67
2022/06/10 13:39:47;;;;;;;3.95;2.40;;;;;;;;;;4205502;34;20060;-67
2022/06/10 13:42:34;;;;;;;2.30;1.87;;;;;;;;;;4205284;34;20109;-66
2022/06/10 13:45:37;;;;;;;2.87;2.20;;;;;;;;;;4205311;34;20113;-68
2022/06/10 13:48:16;;;;;;;3.08;2.30;;;;;;;;;;4202546;34;20118;-68
2022/06/10 13:53:54;;;;;;;2.30;2.10;;;;;;;;;;4217838;34;20120;-68
2022/06/10 13:56:34;;;;;;;2.15;1.95;;;;;;;;;;4206244;34;20110;-67
2022/06/10 13:59:01;;;;;;;2.58;1.80;;;;;;;;;;4205190;34;20098;-68
2022/06/10 14:01:31;;;;;;;3.97;1.90;;;;;;;;;;4217925;34;20120;-67
2022/06/10 14:04:01;;;;;;;2.42;1.75;;;;;;;;;;4204955;34;20161;-67
2022/06/10 14:06:30;;;;;;;3.90;2.05;;;;;;;;;;4217762;34;20572;-68
2022/06/10 14:09:17;;;;;;;2.45;2.25;;;;;;;;;;4205114;34;20125;-67
2022/06/10 14:11:45;;;;;;;5.75;2.08;;;;;;;;;;4217980;34;20113;-68
2022/06/10 14:14:10;;;;;;;2.75;1.90;;;;;;;;;;4204542;34;20505;-69
2022/06/10 14:16:37;;;;;;;4.43;2.00;;;;;;;;;;4204570;34;20216;-68
2022/06/10 14:19:14;;;;;;;5.80;2.60;;;;;;;;;;4205025;34;20453;-67
2022/06/10 14:21:41;;;;;;;9.02;2.25;;;;;;;;;;4204867;34;20109;-67
2022/06/10 14:24:17;;;;;;;2.87;1.80;;;;;;;;;;4217731;34;20109;-68
2022/06/10 14:26:52;;;;;;;4.65;2.10;;;;;;;;;;4217623;34;20213;-67
2022/06/10 14:29:19;;;;;;;1.90;1.80;;;;;;;;;;4217995;34;20176;-68
2022/06/10 14:31:52;;;;;;;2.22;1.95;;;;;;;;;;4217566;34;20125;-68
2022/06/10 14:34:20;;;;;;;2.22;1.92;;;;;;;;;;4204777;34;20109;-68
2022/06/10 14:36:58;;;;;;;2.45;2.25;;;;;;;;;;4217587;34;20262;-68
2022/06/10 14:39:26;;;;;;;3.22;2.22;;;;;;;;;;4204815;33;20140;-68
2022/06/10 14:42:11;;;;;;;4.65;2.05;;;;;;;;;;4209598;34;20098;-67
2022/06/10 14:44:55;;;;;;;2.55;2.17;;;;;;;;;;4208543;33;20184;-67
2022/06/10 14:47:26;;;;;;;4.75;2.33;;;;;;;;;;4231344;33;20140;-67
2022/06/10 14:50:05;;;;;;;5.95;2.05;;;;;;;;;;4223114;33;20108;-67
2022/06/10 14:52:49;;;;;;;7.60;2.53;;;;;;;;;;4204402;34;20198;-67
2022/06/10 14:55:18;;;;;;;7.12;2.22;;;;;;;;;;4204742;34;20108;-67
2022/06/10 14:57:53;;;;;;;2.97;2.50;;;;;;;;;;4221986;33;20117;-67
2022/06/10 15:00:21;;;;;;;7.12;2.50;;;;;;;;;;4218902;33;20125;-67
2022/06/10 15:02:47;;;;;;;5.70;2.30;;;;;;;;;;4231217;33;20124;-67
2022/06/10 15:08:00;;;;;;;2.75;2.10;;;;;;;;;;4231184;33;20613;-67
2022/06/10 15:10:27;;;;;;;2.58;2.03;;;;;;;;;;4231162;33;20102;-67
2022/06/10 15:12:53;;;;;;;5.20;2.28;;;;;;;;;;4231335;33;20438;-67
2022/06/10 15:15:19;;;;;;;3.78;1.95;;;;;;;;;;4223619;33;20541;-67
2022/06/10 15:17:50;;;;;;;5.30;2.10;;;;;;;;;;4217052;34;20136;-67
2022/06/10 15:20:16;;;;;;;3.12;2.17;;;;;;;;;;4204737;34;20556;-67
2022/06/10 15:22:49;;;;;;;2.42;2.00;;;;;;;;;;4217127;34;20124;-67
2022/06/10 15:25:22;;;;;;;4.25;1.85;;;;;;;;;;4204180;34;20203;-67
2022/06/10 15:27:48;;;;;;;2.95;2.33;;;;;;;;;;4217970;34;20089;-67
2022/06/10 15:30:27;;;;;;;4.03;2.12;;;;;;;;;;4206427;34;20582;-67
2022/06/10 15:32:53;;;;;;;3.08;2.10;;;;;;;;;;4219435;34;20236;-67
2022/06/10 15:41:16;;;;;;;2.45;1.98;;;;;;;;;;4219148;34;20116;-67
2022/06/10 15:43:43;;;;;;;3.60;2.20;;;;;;;;;;4206240;34;20121;-68
2022/06/10 15:46:14;;;;;;;4.53;1.95;;;;;;;;;;4219182;34;20101;-68
2022/06/10 15:48:40;;;;;;;2.30;2.10;;;;;;;;;;4219248;34;20220;-68
2022/06/10 15:51:09;;;;;;;1.77;1.67;;;;;;;;;;4219055;34;20711;-68
2022/06/10 15:53:35;;;;;;;3.05;2.33;;;;;;;;;;4217799;34;20236;-68
2022/06/10 15:58:56;;;;;;;4.55;2.30;;;;;;;;;;4156636;34;20448;-68
2022/06/10 16:01:24;;;;;;;4.18;2.90;;;;;;;;;;4206357;34;20192;-67
2022/06/10 16:03:51;;;;;;;2.35;2.15;;;;;;;;;;4219000;34;20109;-68
2022/06/10 16:06:18;;;;;;;5.95;2.62;;;;;;;;;;4206230;34;20109;-68
2022/06/10 16:08:44;;;;;;;6.75;2.85;;;;;;;;;;4219173;34;20115;-68
2022/06/10 16:11:16;;;;;;;3.45;2.62;;;;;;;;;;4218985;34;20116;-68